createdAt,value
2018-08-08T00:00:27.090Z,1.30
2018-08-08T00:02:55.629Z,1.40
2018-08-08T00:05:24.236Z,1.30
2018-08-08T00:07:52.843Z,1.33
2018-08-08T00:10:21.117Z,1.20
2018-08-08T00:12:49.630Z,1.20
2018-08-08T00:15:18.235Z,1.20
2018-08-08T00:17:47.122Z,1.13
2018-08-08T00:20:15.754Z,1.30
2018-08-08T00:22:44.330Z,1.27
2018-08-08T00:25:14.368Z,1.30
2018-08-08T00:27:43.210Z,1.20
2018-08-08T00:30:12.932Z,1.20
2018-08-08T00:32:41.668Z,1.20
2018-08-08T00:35:10.242Z,1.00
2018-08-08T00:37:38.912Z,1.10
2018-08-08T00:40:10.883Z,1.40
2018-08-08T00:42:39.514Z,1.30
2018-08-08T00:45:10.158Z,1.33
2018-08-08T00:47:38.774Z,1.03
2018-08-08T00:50:09.215Z,1.20
2018-08-08T00:52:38.590Z,1.30
2018-08-08T00:55:06.978Z,1.30
2018-08-08T00:57:35.640Z,1.10
2018-08-08T01:00:05.023Z,1.20
2018-08-08T01:02:33.603Z,1.43
2018-08-08T01:05:02.127Z,1.10
2018-08-08T01:07:30.337Z,1.10
2018-08-08T01:09:58.945Z,1.40
2018-08-08T01:12:27.563Z,1.40
2018-08-08T01:14:56.181Z,1.33
2018-08-08T01:17:24.347Z,1.20
2018-08-08T01:19:52.889Z,1.20
2018-08-08T01:22:21.531Z,1.30
2018-08-08T01:24:50.177Z,1.30
2018-08-08T01:27:18.867Z,1.10
2018-08-08T01:29:47.585Z,1.43
2018-08-08T01:32:16.129Z,1.30
2018-08-08T01:34:44.791Z,1.30
2018-08-08T01:37:14.022Z,1.40
2018-08-08T01:39:42.533Z,1.30
2018-08-08T01:42:11.055Z,1.60
2018-08-08T01:44:39.643Z,1.40
2018-08-08T01:47:08.168Z,1.27
2018-08-08T01:49:36.742Z,1.30
2018-08-08T01:52:05.355Z,1.40
2018-08-08T01:54:33.930Z,1.70
2018-08-08T01:57:02.487Z,1.13
2018-08-08T01:59:31.042Z,1.43
2018-08-08T02:01:59.582Z,1.40
2018-08-08T02:04:28.132Z,1.27
2018-08-08T02:06:56.636Z,1.37
2018-08-08T02:09:25.224Z,1.37
2018-08-08T02:11:53.788Z,1.20
2018-08-08T02:14:22.336Z,1.33
2018-08-08T02:16:50.924Z,1.10
2018-08-08T02:19:19.483Z,1.30
2018-08-08T02:21:48.032Z,1.50
2018-08-08T02:24:16.622Z,1.50
2018-08-08T02:26:45.134Z,1.30
2018-08-08T02:29:13.707Z,1.50
2018-08-08T02:31:42.357Z,1.50
2018-08-08T02:34:10.939Z,1.43
2018-08-08T02:36:39.483Z,1.30
2018-08-08T02:39:10.737Z,1.47
2018-08-08T02:41:38.929Z,1.43
2018-08-08T02:44:07.491Z,1.40
2018-08-08T02:46:36.108Z,1.50
2018-08-08T02:49:04.998Z,1.77
2018-08-08T02:51:33.588Z,1.40
2018-08-08T02:54:02.692Z,1.50
2018-08-08T02:56:31.414Z,1.53
2018-08-08T02:59:00.038Z,1.50
2018-08-08T03:01:28.635Z,1.50
2018-08-08T03:03:57.238Z,1.40
2018-08-08T03:06:25.809Z,1.50
2018-08-08T03:08:54.391Z,1.53
2018-08-08T03:11:22.928Z,1.63
2018-08-08T03:13:51.526Z,1.60
2018-08-08T03:16:20.090Z,1.60
2018-08-08T03:18:48.672Z,1.70
2018-08-08T03:21:17.208Z,1.63
2018-08-08T03:23:45.838Z,1.80
2018-08-08T03:26:14.390Z,1.70
2018-08-08T03:28:42.948Z,1.60
2018-08-08T03:31:11.477Z,1.50
2018-08-08T03:33:40.035Z,1.63
2018-08-08T03:36:08.638Z,1.70
2018-08-08T03:38:37.210Z,1.83
2018-08-08T03:41:05.731Z,1.70
2018-08-08T03:43:34.270Z,1.70
2018-08-08T03:46:02.850Z,1.60
2018-08-08T03:48:31.522Z,1.80
2018-08-08T03:51:00.072Z,1.70
2018-08-08T03:53:28.628Z,1.80
2018-08-08T03:55:57.216Z,1.60
2018-08-08T03:58:25.724Z,1.50
2018-08-08T04:00:54.276Z,1.60
2018-08-08T04:03:22.832Z,1.60
2018-08-08T04:05:51.026Z,1.73
2018-08-08T04:08:19.526Z,1.80
2018-08-08T04:10:48.132Z,1.63
2018-08-08T04:13:16.741Z,1.43
2018-08-08T04:15:45.282Z,1.70
2018-08-08T04:18:13.857Z,1.80
2018-08-08T04:20:42.402Z,2.00
2018-08-08T04:23:10.967Z,1.60
2018-08-08T04:25:39.554Z,1.60
2018-08-08T04:28:08.146Z,1.50
2018-08-08T04:30:36.720Z,1.70
2018-08-08T04:33:05.709Z,1.90
2018-08-08T04:35:33.843Z,1.70
2018-08-08T04:38:02.371Z,1.60
2018-08-08T04:40:30.906Z,1.73
2018-08-08T04:42:59.463Z,1.80
2018-08-08T04:45:28.085Z,2.10
2018-08-08T04:47:56.315Z,1.80
2018-08-08T04:50:24.907Z,1.90
2018-08-08T04:52:53.525Z,1.50
2018-08-08T04:55:22.132Z,1.70
2018-08-08T04:57:50.317Z,1.70
2018-08-08T05:00:19.259Z,1.93
2018-08-08T05:02:47.810Z,1.77
2018-08-08T05:05:16.119Z,1.57
2018-08-08T05:07:44.642Z,2.00
2018-08-08T05:10:13.291Z,1.90
2018-08-08T05:12:42.298Z,1.77
2018-08-08T05:15:13.158Z,1.80
2018-08-08T05:17:41.715Z,1.83
2018-08-08T05:20:11.376Z,1.60
2018-08-08T05:22:39.832Z,1.77
2018-08-08T05:25:08.424Z,2.10
2018-08-08T05:27:37.038Z,2.43
2018-08-08T05:30:13.447Z,2.00
2018-08-08T05:32:42.182Z,2.20
2018-08-08T05:35:11.280Z,1.90
2018-08-08T05:37:39.904Z,2.40
2018-08-08T05:40:13.220Z,2.20
2018-08-08T05:42:41.833Z,2.10
2018-08-08T05:45:12.621Z,2.30
2018-08-08T05:47:41.363Z,2.27
2018-08-08T05:50:11.591Z,2.20
2018-08-08T05:52:40.697Z,2.10
2018-08-08T05:55:10.777Z,2.23
2018-08-08T05:57:39.409Z,2.50
2018-08-08T06:00:29.389Z,2.30
2018-08-08T06:02:58.032Z,2.33
2018-08-08T06:05:26.720Z,2.80
2018-08-08T06:07:55.623Z,2.57
2018-08-08T06:10:24.195Z,3.97
2018-08-08T06:12:52.745Z,4.27
2018-08-08T06:15:21.382Z,3.97
2018-08-08T06:17:49.954Z,3.47
2018-08-08T06:20:19.940Z,3.70
2018-08-08T06:22:49.074Z,4.10
2018-08-08T06:25:17.417Z,4.80
2018-08-08T06:27:46.248Z,4.10
2018-08-08T06:30:19.045Z,3.73
2018-08-08T06:32:48.203Z,4.00
2018-08-08T06:35:19.636Z,4.03
2018-08-08T06:37:48.266Z,3.87
2018-08-08T06:40:16.840Z,4.60
2018-08-08T06:42:46.312Z,4.03
2018-08-08T06:45:16.920Z,4.37
2018-08-08T06:47:45.128Z,5.20
2018-08-08T06:50:14.407Z,5.63
2018-08-08T06:52:43.049Z,5.23
2018-08-08T06:55:13.141Z,5.40
2018-08-08T06:57:41.922Z,5.13
2018-08-08T07:00:14.554Z,5.33
2018-08-08T07:02:43.838Z,5.10
2018-08-08T07:05:12.833Z,5.10
2018-08-08T07:07:41.510Z,5.33
2018-08-08T07:10:10.413Z,5.70
2018-08-08T07:12:39.047Z,5.37
2018-08-08T07:15:08.387Z,5.37
2018-08-08T07:17:37.044Z,5.50
2018-08-08T07:20:05.278Z,5.57
2018-08-08T07:22:33.816Z,6.00
2018-08-08T07:25:02.071Z,5.73
2018-08-08T07:27:30.663Z,5.90
2018-08-08T07:29:59.299Z,6.07
2018-08-08T07:32:27.866Z,5.53
2018-08-08T07:34:56.429Z,5.53
2018-08-08T07:37:25.025Z,5.80
2018-08-08T07:39:53.255Z,5.90
2018-08-08T07:42:21.831Z,5.83
2018-08-08T07:44:50.503Z,6.47
2018-08-08T07:47:19.039Z,5.33
2018-08-08T07:49:47.599Z,5.60
2018-08-08T07:52:16.155Z,5.53
2018-08-08T07:54:44.360Z,5.63
2018-08-08T07:57:12.923Z,5.33
2018-08-08T07:59:41.154Z,5.70
2018-08-08T08:02:42.506Z,5.60
2018-08-08T08:05:11.133Z,5.73
2018-08-08T08:07:39.672Z,5.40
2018-08-08T08:10:08.949Z,5.40
2018-08-08T08:12:37.496Z,4.93
2018-08-08T08:15:07.465Z,4.93
2018-08-08T08:17:35.982Z,5.07
2018-08-08T08:20:06.678Z,5.07
2018-08-08T08:22:35.207Z,4.90
2018-08-08T08:25:03.927Z,4.60
2018-08-08T08:27:32.490Z,5.40
2018-08-08T08:30:01.025Z,4.80
2018-08-08T08:32:29.625Z,5.13
2018-08-08T08:34:58.200Z,5.10
2018-08-08T08:37:26.760Z,4.63
2018-08-08T08:39:55.334Z,4.90
2018-08-08T08:42:23.859Z,4.27
2018-08-08T08:44:52.440Z,4.20
2018-08-08T08:47:20.979Z,4.87
2018-08-08T08:49:49.647Z,4.07
2018-08-08T08:52:18.183Z,4.63
2018-08-08T08:54:46.703Z,4.97
2018-08-08T08:57:15.228Z,4.60
2018-08-08T08:59:43.799Z,4.33
2018-08-08T09:02:12.340Z,4.50
2018-08-08T09:04:40.936Z,4.60
2018-08-08T09:07:09.489Z,4.57
2018-08-08T09:09:38.054Z,4.50
2018-08-08T09:12:06.660Z,4.33
2018-08-08T09:14:35.154Z,4.53
2018-08-08T09:17:03.778Z,4.43
2018-08-08T09:19:32.391Z,4.07
2018-08-08T09:22:00.989Z,4.23
2018-08-08T09:24:29.532Z,4.47
2018-08-08T09:26:58.113Z,4.87
2018-08-08T09:29:26.676Z,4.83
2018-08-08T09:31:55.269Z,4.83
2018-08-08T09:34:23.818Z,4.87
2018-08-08T09:36:52.400Z,4.80
2018-08-08T09:39:20.934Z,4.90
2018-08-08T09:41:49.520Z,5.10
2018-08-08T09:44:18.103Z,4.60
2018-08-08T09:46:46.679Z,4.67
2018-08-08T09:49:15.300Z,4.80
2018-08-08T09:51:43.844Z,5.40
2018-08-08T09:54:12.388Z,4.80
2018-08-08T09:56:40.969Z,5.00
2018-08-08T09:59:09.493Z,4.80
2018-08-08T10:01:43.257Z,5.07
2018-08-08T10:04:17.086Z,5.03
2018-08-08T10:06:45.705Z,4.90
2018-08-08T10:09:14.269Z,4.65
2018-08-08T10:11:42.820Z,5.13
2018-08-08T10:14:11.373Z,4.77
2018-08-08T10:16:39.911Z,5.07
2018-08-08T10:19:08.567Z,4.87
2018-08-08T10:21:37.038Z,5.07
2018-08-08T10:24:05.597Z,4.87
2018-08-08T10:26:34.184Z,4.80
2018-08-08T10:29:02.711Z,4.83
2018-08-08T10:31:31.276Z,4.63
2018-08-08T10:33:59.901Z,4.58
2018-08-08T10:36:28.431Z,4.27
2018-08-08T10:38:56.953Z,4.20
2018-08-08T10:41:25.554Z,4.03
2018-08-08T10:43:54.142Z,4.50
2018-08-08T10:46:22.708Z,3.87
2018-08-08T10:48:51.282Z,4.53
2018-08-08T10:51:19.829Z,4.53
2018-08-08T10:53:48.412Z,4.00
2018-08-08T10:56:17.022Z,4.40
2018-08-08T10:58:45.542Z,4.33
2018-08-08T11:01:14.120Z,4.30
2018-08-08T11:03:42.783Z,4.57
2018-08-08T11:06:11.348Z,4.70
2018-08-08T11:08:39.906Z,4.10
2018-08-08T11:11:08.439Z,4.43
2018-08-08T11:13:37.089Z,4.37
2018-08-08T11:16:05.683Z,4.77
2018-08-08T11:18:34.284Z,4.50
2018-08-08T11:21:02.890Z,4.40
2018-08-08T11:23:31.576Z,4.60
2018-08-08T11:26:00.140Z,4.20
2018-08-08T11:28:28.688Z,4.90
2018-08-08T11:30:57.257Z,5.47
2018-08-08T11:33:25.815Z,5.40
2018-08-08T11:35:54.370Z,5.40
2018-08-08T11:38:22.958Z,5.70
2018-08-08T11:40:51.479Z,5.27
2018-08-08T11:43:20.030Z,6.10
2018-08-08T11:45:48.605Z,5.60
2018-08-08T11:48:17.135Z,5.70
2018-08-08T11:50:45.702Z,7.00
2018-08-08T11:53:14.284Z,6.60
2018-08-08T11:55:42.828Z,7.17
2018-08-08T11:58:11.341Z,7.27
2018-08-08T12:00:39.878Z,7.20
2018-08-08T12:03:08.404Z,6.90
2018-08-08T12:05:36.942Z,6.57
2018-08-08T12:08:05.480Z,6.70
2018-08-08T12:10:34.038Z,5.93
2018-08-08T12:13:02.547Z,6.00
2018-08-08T12:15:31.079Z,6.00
2018-08-08T12:17:59.637Z,6.20
2018-08-08T12:20:28.144Z,6.50
2018-08-08T12:22:56.695Z,6.87
2018-08-08T12:25:25.232Z,6.40
2018-08-08T12:27:53.737Z,5.87
2018-08-08T12:30:22.253Z,6.87
2018-08-08T12:32:50.803Z,7.30
2018-08-08T12:35:19.443Z,6.67
2018-08-08T12:37:47.952Z,6.77
2018-08-08T12:40:16.544Z,7.50
2018-08-08T12:42:45.012Z,7.00
2018-08-08T12:45:13.502Z,8.20
2018-08-08T12:47:42.035Z,8.33
2018-08-08T12:50:10.548Z,7.80
2018-08-08T12:52:39.034Z,7.40
2018-08-08T12:55:07.546Z,7.73
2018-08-08T12:57:36.059Z,6.60
2018-08-08T13:00:05.502Z,6.57
2018-08-08T13:02:34.029Z,5.37
2018-08-08T13:05:02.585Z,6.10
2018-08-08T13:07:31.093Z,6.27
2018-08-08T13:09:59.613Z,5.33
2018-08-08T13:12:28.149Z,5.57
2018-08-08T13:14:56.644Z,4.77
2018-08-08T13:17:25.279Z,4.70
2018-08-08T13:19:53.783Z,5.13
2018-08-08T13:22:22.350Z,5.87
2018-08-08T13:24:50.988Z,5.33
2018-08-08T13:27:19.451Z,5.27
2018-08-08T13:29:47.984Z,4.43
2018-08-08T13:32:16.541Z,3.90
2018-08-08T13:34:45.162Z,4.00
2018-08-08T13:37:13.712Z,3.50
2018-08-08T13:39:42.362Z,3.60
2018-08-08T13:42:10.844Z,3.87
2018-08-08T13:44:40.362Z,3.90
2018-08-08T13:47:08.937Z,3.93
2018-08-08T13:49:37.485Z,4.10
2018-08-08T13:52:06.166Z,3.67
2018-08-08T13:54:34.723Z,3.73
2018-08-08T13:57:03.718Z,3.83
2018-08-08T13:59:32.273Z,3.70
2018-08-08T14:02:00.825Z,4.00
2018-08-08T14:04:29.439Z,3.10
2018-08-08T14:06:57.969Z,3.87
2018-08-08T14:09:26.986Z,3.87
2018-08-08T14:11:55.527Z,3.70
2018-08-08T14:14:24.121Z,3.67
2018-08-08T14:16:52.573Z,3.40
2018-08-08T14:19:21.152Z,3.10
2018-08-08T14:21:49.705Z,3.30
2018-08-08T14:24:18.260Z,3.07
2018-08-08T14:26:46.798Z,3.37
2018-08-08T14:29:15.328Z,2.80
2018-08-08T14:31:43.884Z,2.90
2018-08-08T14:34:12.428Z,3.45
2018-08-08T14:36:40.994Z,3.50
2018-08-08T14:39:11.184Z,3.25
2018-08-08T14:41:40.351Z,3.65
2018-08-08T14:44:09.778Z,3.40
2018-08-08T14:46:38.941Z,3.50
2018-08-08T14:49:07.586Z,3.00
2018-08-08T14:51:36.168Z,3.58
2018-08-08T14:54:04.775Z,3.40
2018-08-08T14:56:33.359Z,2.85
2018-08-08T14:59:01.906Z,2.92
2018-08-08T15:01:30.481Z,2.90
2018-08-08T15:03:59.022Z,3.15
2018-08-08T15:06:27.577Z,3.40
2018-08-08T15:08:56.154Z,3.27
2018-08-08T15:11:24.680Z,3.20
2018-08-08T15:13:53.258Z,3.22
2018-08-08T15:16:21.844Z,3.60
2018-08-08T15:18:50.383Z,3.20
2018-08-08T15:21:18.912Z,3.40
2018-08-08T15:23:47.586Z,3.27
2018-08-08T15:26:16.490Z,3.50
2018-08-08T15:28:45.059Z,3.22
2018-08-08T15:31:13.667Z,3.40
2018-08-08T15:33:42.242Z,3.58
2018-08-08T15:36:10.779Z,3.05
2018-08-08T15:38:39.337Z,3.67
2018-08-08T15:41:08.036Z,3.58
2018-08-08T15:43:36.665Z,3.70
2018-08-08T15:46:05.363Z,3.58
2018-08-08T15:48:33.949Z,4.00
2018-08-08T15:51:02.564Z,3.30
2018-08-08T15:53:31.134Z,3.40
2018-08-08T15:55:59.767Z,4.10
2018-08-08T15:58:28.351Z,3.50
2018-08-08T16:00:56.967Z,3.85
2018-08-08T16:03:25.560Z,3.98
2018-08-08T16:05:54.269Z,3.97
2018-08-08T16:08:22.835Z,3.50
2018-08-08T16:10:51.390Z,3.80
2018-08-08T16:13:19.917Z,3.53
2018-08-08T16:15:48.497Z,3.50
2018-08-08T16:18:17.088Z,4.00
2018-08-08T16:20:45.711Z,3.53
2018-08-08T16:23:14.258Z,3.27
2018-08-08T16:25:42.908Z,3.67
2018-08-08T16:28:11.483Z,4.50
2018-08-08T16:30:40.078Z,3.53
2018-08-08T16:33:08.651Z,3.63
2018-08-08T16:35:37.176Z,3.50
2018-08-08T16:38:06.432Z,3.77
2018-08-08T16:40:35.064Z,3.53
2018-08-08T16:43:03.684Z,3.63
2018-08-08T16:45:32.248Z,3.63
2018-08-08T16:48:00.838Z,3.90
2018-08-08T16:50:29.404Z,3.60
2018-08-08T16:52:57.958Z,3.67
2018-08-08T16:55:26.609Z,3.90
2018-08-08T16:57:55.176Z,3.70
2018-08-08T17:08:57.005Z,3.97
2018-08-08T17:11:25.699Z,3.77
2018-08-08T17:13:54.357Z,4.00
2018-08-08T17:16:23.019Z,3.87
2018-08-08T17:18:55.354Z,4.00
2018-08-08T17:21:24.074Z,4.37
2018-08-08T17:23:52.853Z,3.90
2018-08-08T17:26:21.519Z,4.20
2018-08-08T17:28:50.076Z,4.70
2018-08-08T17:31:18.733Z,4.03
2018-08-08T17:33:47.288Z,4.13
2018-08-08T17:36:16.141Z,4.50
2018-08-08T17:38:44.742Z,4.10
2018-08-08T17:55:57.774Z,4.00
2018-08-08T17:58:26.358Z,3.73
2018-08-08T18:00:55.003Z,4.10
2018-08-08T18:06:54.889Z,4.07
2018-08-08T18:12:44.426Z,4.40
2018-08-08T18:15:13.100Z,4.27
2018-08-08T18:17:41.672Z,4.67
2018-08-08T18:20:10.307Z,22.37
2018-08-08T18:22:39.845Z,16.20
2018-08-08T18:25:08.685Z,5.73
2018-08-08T18:27:37.389Z,5.20
2018-08-08T18:30:07.588Z,4.57
2018-08-08T18:32:36.196Z,4.47
2018-08-08T18:35:05.082Z,5.00
2018-08-08T18:37:34.134Z,4.70
2018-08-08T18:40:02.821Z,5.40
2018-08-08T18:42:32.069Z,4.77
2018-08-08T18:45:00.679Z,5.27
2018-08-08T18:47:29.276Z,5.53
2018-08-08T18:49:57.832Z,6.00
2018-08-08T18:52:26.441Z,5.13
2018-08-08T18:54:55.046Z,4.47
2018-08-08T18:57:23.611Z,4.93
2018-08-08T18:59:52.189Z,4.30
2018-08-08T19:02:20.775Z,4.17
2018-08-08T19:04:49.911Z,3.63
2018-08-08T19:07:18.536Z,4.20
2018-08-08T19:09:47.113Z,4.07
2018-08-08T19:12:15.688Z,4.77
2018-08-08T19:14:44.228Z,4.90
2018-08-08T19:17:12.804Z,4.60
2018-08-08T19:19:41.392Z,4.87
2018-08-08T19:22:09.944Z,4.37
2018-08-08T19:24:38.517Z,4.87
2018-08-08T19:27:08.721Z,5.30
2018-08-08T19:29:37.253Z,6.20
2018-08-08T19:32:05.914Z,6.33
2018-08-08T19:34:34.475Z,7.07
2018-08-08T19:37:03.093Z,7.30
2018-08-08T19:39:31.662Z,7.07
2018-08-08T19:42:00.207Z,6.10
2018-08-08T19:44:28.744Z,6.70
2018-08-08T19:46:57.305Z,6.90
2018-08-08T19:52:51.522Z,6.83
2018-08-08T19:55:20.099Z,6.57
2018-08-08T19:57:48.649Z,6.80
2018-08-08T20:00:17.224Z,6.03
2018-08-08T20:02:45.781Z,6.37
2018-08-08T20:05:14.329Z,6.43
2018-08-08T20:07:42.891Z,6.23
2018-08-08T20:10:11.457Z,6.03
2018-08-08T20:12:40.006Z,6.43
2018-08-08T20:15:08.555Z,6.20
2018-08-08T20:17:37.107Z,6.60
2018-08-08T20:20:05.799Z,6.10
2018-08-08T20:22:34.347Z,5.90
2018-08-08T20:25:02.896Z,6.93
2018-08-08T20:27:31.418Z,6.40
2018-08-08T20:29:59.970Z,6.37
2018-08-08T20:32:28.523Z,6.17
2018-08-08T20:34:57.081Z,5.67
2018-08-08T20:37:25.616Z,6.57
2018-08-08T20:39:54.175Z,6.57
2018-08-08T20:42:22.703Z,5.70
2018-08-08T20:44:51.246Z,6.47
2018-08-08T20:47:19.776Z,6.33
2018-08-08T20:49:48.311Z,6.40
2018-08-08T20:52:16.867Z,7.10
2018-08-08T20:54:45.395Z,6.50
2018-08-08T20:57:13.967Z,7.30
2018-08-08T20:59:42.525Z,6.40
2018-08-08T21:02:11.087Z,5.87
2018-08-08T21:04:39.625Z,5.93
2018-08-08T21:07:08.449Z,5.57
2018-08-08T21:09:36.995Z,5.80
2018-08-08T21:12:05.567Z,5.90
2018-08-08T21:14:34.120Z,6.60
2018-08-08T21:17:02.690Z,7.20
2018-08-08T21:19:31.208Z,6.93
2018-08-08T21:21:59.823Z,7.00
2018-08-08T21:24:28.372Z,7.00
2018-08-08T21:26:56.900Z,7.20
2018-08-08T21:29:25.430Z,8.47
2018-08-08T21:31:53.965Z,7.57
2018-08-08T21:34:22.504Z,7.40
2018-08-08T21:36:51.064Z,7.03
2018-08-08T21:39:19.592Z,6.60
2018-08-08T21:41:48.144Z,7.40
2018-08-08T21:44:16.676Z,7.70
2018-08-08T21:46:45.212Z,7.70
2018-08-08T21:49:13.744Z,7.63
2018-08-08T21:51:42.266Z,6.23
2018-08-08T21:54:22.105Z,6.40
2018-08-08T21:57:01.714Z,6.70
2018-08-08T21:59:41.486Z,6.30
2018-08-08T22:04:28.235Z,6.20
2018-08-08T22:07:07.759Z,5.87
2018-08-08T22:09:47.502Z,4.90
2018-08-08T22:12:26.051Z,4.90
2018-08-08T22:15:05.701Z,5.43
2018-08-08T22:17:45.399Z,5.63
2018-08-08T22:20:13.931Z,4.97
2018-08-08T22:22:42.486Z,5.80
2018-08-08T22:25:11.026Z,5.77
2018-08-08T22:27:39.579Z,5.83
2018-08-08T22:30:08.185Z,5.13
2018-08-08T22:32:36.740Z,5.87
2018-08-08T22:35:05.498Z,5.20
2018-08-08T22:37:34.037Z,5.30
2018-08-08T22:40:02.612Z,4.80
2018-08-08T22:42:31.142Z,5.40
2018-08-08T22:44:59.661Z,5.47
2018-08-08T22:47:28.183Z,5.10
2018-08-08T22:49:56.745Z,5.80
2018-08-08T22:52:25.272Z,5.43
2018-08-08T22:54:53.868Z,5.20
2018-08-08T22:57:22.458Z,5.30
2018-08-08T22:59:50.998Z,5.10
2018-08-08T23:02:19.638Z,4.80
2018-08-08T23:04:48.193Z,5.00
2018-08-08T23:07:16.768Z,5.20
2018-08-08T23:09:45.318Z,4.53
2018-08-08T23:12:13.902Z,5.40
2018-08-08T23:14:42.430Z,5.97
2018-08-08T23:17:10.988Z,5.00
2018-08-08T23:19:39.530Z,4.77
2018-08-08T23:22:08.140Z,5.00
2018-08-08T23:24:36.687Z,5.50
2018-08-08T23:27:05.295Z,6.37
2018-08-08T23:29:33.849Z,5.53
2018-08-08T23:32:02.406Z,5.43
2018-08-08T23:34:30.985Z,5.70
2018-08-08T23:36:59.559Z,4.97
2018-08-08T23:39:28.101Z,5.30
2018-08-08T23:41:56.631Z,5.53
2018-08-08T23:44:25.207Z,5.80
2018-08-08T23:46:53.731Z,5.80
2018-08-08T23:49:22.291Z,6.00
2018-08-08T23:51:50.822Z,5.57
2018-08-08T23:54:19.368Z,5.33
2018-08-08T23:56:47.909Z,5.80
2018-08-08T23:59:16.451Z,5.97
